Archival Weather

Norman Y Mineta San Jose Intl

San Jose, California (KSJC)

Report from: Saturday, September 30, 2023 5:53 PM PDT
Current time: Thursday, July 18, 2024 7:39 PM PDT

Current weather – Weather history – Daily summaries
Weather forecast

Temperature19.4°C (66.9°F)
Dew point11.1°C (52.0°F)
Winds 5 kts (2.6 m/s, 5.8 mph) North (350°)
Visibility10 mi. (16.1 km)
Clouds Few clouds 1,400 ft. (427 m)
Ceiling: Broken clouds 3,300 ft. (1,006 m)
Broken clouds 6,000 ft. (1,829 m)
Altimeter29.79 in.Hg (1009 mB)
Relative humidity59 %
Density altitude852 ft. (260 m)
Sea-level pressure100.9 kPa (1009 mB, 29.79 in.Hg)
Remarks Automated weather observing station with precipitation discriminator
Flight conditions Visual Meteorological Conditions
Raw dataKSJC 010053Z 35005KT 10SM FEW014 BKN033 BKN060 19/11 A2979 RMK AO2 SLP088 T01940111
An error has occurred. This application may no longer respond until reloaded. Reload 🗙